createdAt,value
2022-12-12T00:00:18.020Z,100455.66
2022-12-12T00:02:49.921Z,100461.59
2022-12-12T00:05:21.365Z,100457.25
2022-12-12T00:07:52.655Z,100455.56
2022-12-12T00:10:23.931Z,100438.84
2022-12-12T00:12:55.257Z,100441.53
2022-12-12T00:15:27.761Z,100454.78
2022-12-12T00:17:59.070Z,100443.19
2022-12-12T00:20:30.369Z,100441.31
2022-12-12T00:23:01.695Z,100464.28
2022-12-12T00:25:33.043Z,100465.91
2022-12-12T00:28:04.539Z,100461.53
2022-12-12T00:30:35.819Z,100460.53
2022-12-12T00:33:07.085Z,100462.19
2022-12-12T00:35:38.480Z,100451.44
2022-12-12T00:38:09.973Z,100466.38
2022-12-12T00:40:41.248Z,100475.72
2022-12-12T00:43:12.662Z,100477.28
2022-12-12T00:45:43.924Z,100470.16
2022-12-12T00:48:15.192Z,100473.44
2022-12-12T00:50:47.013Z,100461.13
2022-12-12T00:53:19.057Z,100465.31
2022-12-12T00:55:57.839Z,100467.84
2022-12-12T00:58:30.739Z,100461.72
2022-12-12T01:01:07.781Z,100454.56
2022-12-12T01:03:41.069Z,100472.94
2022-12-12T01:06:13.080Z,100473.13
2022-12-12T01:08:44.436Z,100476.75
2022-12-12T01:11:16.467Z,100464.47
2022-12-12T01:13:49.447Z,100473.38
2022-12-12T01:16:22.067Z,100483.06
2022-12-12T01:18:53.540Z,100479.66
2022-12-12T01:21:25.102Z,100464.69
2022-12-12T01:23:56.429Z,100484.09
2022-12-12T01:26:27.806Z,100481.53
2022-12-12T01:28:59.052Z,100488.56
2022-12-12T01:31:30.455Z,100485.97
2022-12-12T01:34:01.752Z,100491.19
2022-12-12T01:36:33.414Z,100482.53
2022-12-12T01:39:05.723Z,100455.22
2022-12-12T01:41:37.678Z,100491.34
2022-12-12T01:44:52.594Z,100486.06
2022-12-12T01:47:25.355Z,100487.69
2022-12-12T01:50:04.465Z,100473.53
2022-12-12T01:52:44.297Z,100498.03
2022-12-12T01:55:20.496Z,100484.94
2022-12-12T01:57:54.574Z,100481.31
2022-12-12T02:00:25.933Z,100484.59
2022-12-12T02:02:57.669Z,100460.63
2022-12-12T02:05:33.775Z,100484.06
2022-12-12T02:08:06.356Z,100484.72
2022-12-12T02:10:37.662Z,100453.81
2022-12-12T02:13:19.421Z,100479.06
2022-12-12T02:16:22.459Z,100480.63
2022-12-12T02:19:05.048Z,100480.28
2022-12-12T02:21:46.298Z,100486.88
2022-12-12T02:24:42.082Z,100481.31
2022-12-12T02:27:48.216Z,100480.94
2022-12-12T02:30:41.073Z,100490.13
2022-12-12T02:33:49.664Z,100480.25
2022-12-12T02:36:28.766Z,100482.56
2022-12-12T02:39:27.379Z,100486.53
2022-12-12T02:42:10.628Z,100473.81
2022-12-12T02:44:56.341Z,100491.28
2022-12-12T02:51:15.621Z,100488.16
2022-12-12T02:53:46.961Z,100461.50
2022-12-12T02:56:43.183Z,100490.34
2022-12-12T02:59:20.841Z,100479.56
2022-12-12T03:02:19.256Z,100497.00
2022-12-12T03:05:21.354Z,100495.13
2022-12-12T03:08:11.349Z,100486.22
2022-12-12T03:11:41.223Z,100498.16
2022-12-12T03:14:29.432Z,100497.00
2022-12-12T03:17:17.529Z,100495.97
2022-12-12T03:20:02.328Z,100495.75
2022-12-12T03:22:43.502Z,100499.16
2022-12-12T03:25:27.850Z,100499.06
2022-12-12T03:28:37.980Z,100504.13
2022-12-12T03:31:12.195Z,100493.47
2022-12-12T03:33:46.880Z,100485.28
2022-12-12T03:36:25.864Z,100498.41
2022-12-12T03:39:03.245Z,100496.47
2022-12-12T03:41:43.433Z,100496.28
2022-12-12T03:44:20.305Z,100482.88
2022-12-12T03:46:56.407Z,100496.84
2022-12-12T03:49:45.265Z,100448.97
2022-12-12T03:52:33.409Z,100499.16
2022-12-12T03:55:12.485Z,100472.34
2022-12-12T03:58:00.539Z,100491.72
2022-12-12T04:00:33.641Z,100504.75
2022-12-12T04:03:18.316Z,100511.56
2022-12-12T04:06:25.994Z,100452.41
2022-12-12T04:09:22.438Z,100517.44
2022-12-12T04:12:37.770Z,100518.22
2022-12-12T04:15:25.211Z,100502.84
2022-12-12T04:18:17.162Z,100488.59
2022-12-12T04:21:37.417Z,100527.34
2022-12-12T04:24:22.799Z,100523.75
2022-12-12T04:27:04.769Z,100521.91
2022-12-12T04:29:38.723Z,100527.09
2022-12-12T04:32:32.641Z,100526.28
2022-12-12T04:35:14.015Z,100523.81
2022-12-12T04:37:55.189Z,100523.22
2022-12-12T04:40:33.759Z,100501.44
2022-12-12T04:43:10.183Z,100520.41
2022-12-12T04:45:43.844Z,100527.72
2022-12-12T04:48:20.586Z,100534.06
2022-12-12T04:50:53.255Z,100537.88
2022-12-12T04:53:32.373Z,100520.78
2022-12-12T04:56:09.339Z,100539.66
2022-12-12T04:58:40.772Z,100512.75
2022-12-12T05:01:23.241Z,100490.22
2022-12-12T05:03:58.353Z,100530.22
2022-12-12T05:06:44.953Z,100534.78
2022-12-12T05:09:17.847Z,100533.22
2022-12-12T05:11:49.692Z,100534.28
2022-12-12T05:14:21.370Z,100530.97
2022-12-12T05:16:55.682Z,100532.06
2022-12-12T05:19:26.952Z,100517.13
2022-12-12T05:21:58.222Z,100532.44
2022-12-12T05:24:31.251Z,100522.00
2022-12-12T05:27:02.636Z,100525.72
2022-12-12T05:29:34.065Z,100538.19
2022-12-12T05:32:05.348Z,100545.25
2022-12-12T05:34:36.611Z,100536.63
2022-12-12T05:37:07.887Z,100533.22
2022-12-12T05:39:39.199Z,100535.00
2022-12-12T05:42:10.449Z,100530.59
2022-12-12T05:44:41.796Z,100520.84
2022-12-12T05:47:13.093Z,100538.19
2022-12-12T05:49:45.187Z,100534.34
2022-12-12T05:52:16.664Z,100528.44
2022-12-12T05:54:47.945Z,100545.38
2022-12-12T05:57:19.654Z,100521.94
2022-12-12T05:59:50.917Z,100539.09
2022-12-12T06:02:22.230Z,100553.41
2022-12-12T06:04:53.624Z,100546.94
2022-12-12T06:07:25.008Z,100543.13
2022-12-12T06:09:56.315Z,100553.09
2022-12-12T06:12:27.676Z,100549.16
2022-12-12T06:14:58.979Z,100561.88
2022-12-12T06:17:33.271Z,100541.28
2022-12-12T06:20:05.554Z,100557.84
2022-12-12T06:22:36.940Z,100563.59
2022-12-12T06:25:08.939Z,100558.94
2022-12-12T06:27:40.194Z,100537.56
2022-12-12T06:30:11.928Z,100552.38
2022-12-12T06:32:43.323Z,100552.91
2022-12-12T06:35:14.996Z,100532.38
2022-12-12T06:37:48.347Z,100559.41
2022-12-12T06:40:19.851Z,100515.91
2022-12-12T06:42:51.206Z,100563.25
2022-12-12T06:45:22.618Z,100571.59
2022-12-12T06:47:53.908Z,100576.56
2022-12-12T06:50:25.294Z,100562.47
2022-12-12T06:52:56.628Z,100578.81
2022-12-12T06:55:27.955Z,100585.50
2022-12-12T06:57:59.339Z,100584.34
2022-12-12T07:00:30.803Z,100589.38
2022-12-12T07:03:02.187Z,100595.22
2022-12-12T07:05:33.626Z,100597.69
2022-12-12T07:08:04.973Z,100583.66
2022-12-12T07:10:36.571Z,100594.81
2022-12-12T07:13:08.169Z,100555.78
2022-12-12T07:15:48.289Z,100588.28
2022-12-12T07:18:19.711Z,100594.50
2022-12-12T07:20:51.042Z,100582.59
2022-12-12T07:23:22.300Z,100574.63
2022-12-12T07:25:53.559Z,100591.44
2022-12-12T07:28:25.059Z,100594.00
2022-12-12T07:30:56.449Z,100581.50
2022-12-12T07:33:39.556Z,100583.13
2022-12-12T07:36:14.545Z,100600.81
2022-12-12T07:38:45.919Z,100601.63
2022-12-12T07:41:18.810Z,100599.03
2022-12-12T07:43:50.917Z,100604.88
2022-12-12T07:46:25.170Z,100604.97
2022-12-12T07:48:57.018Z,100610.13
2022-12-12T07:51:29.609Z,100605.72
2022-12-12T07:54:01.141Z,100606.66
2022-12-12T07:56:32.653Z,100615.22
2022-12-12T07:59:03.916Z,100615.22
2022-12-12T08:01:35.656Z,100618.69
2022-12-12T08:04:07.024Z,100618.78
2022-12-12T08:06:38.600Z,100613.75
2022-12-12T08:09:09.941Z,100621.69
2022-12-12T08:11:46.132Z,100622.72
2022-12-12T08:14:17.936Z,100603.41
2022-12-12T08:16:49.241Z,100616.06
2022-12-12T08:19:20.594Z,100593.34
2022-12-12T08:21:51.891Z,100604.84
2022-12-12T08:24:23.244Z,100616.31
2022-12-12T08:26:54.559Z,100625.03
2022-12-12T08:29:25.936Z,100618.97
2022-12-12T08:31:57.611Z,100630.41
2022-12-12T08:34:28.942Z,100632.38
2022-12-12T08:37:00.304Z,100635.06
2022-12-12T08:39:31.655Z,100615.72
2022-12-12T08:42:03.722Z,100636.09
2022-12-12T08:44:35.078Z,100622.84
2022-12-12T08:47:06.722Z,100643.22
2022-12-12T08:49:38.055Z,100650.38
2022-12-12T08:52:10.307Z,100630.44
2022-12-12T08:54:41.661Z,100640.56
2022-12-12T08:57:12.960Z,100620.41
2022-12-12T08:59:44.276Z,100645.25
2022-12-12T09:02:15.706Z,100644.56
2022-12-12T09:04:47.123Z,100642.91
2022-12-12T09:07:18.444Z,100640.34
2022-12-12T09:09:49.784Z,100648.41
2022-12-12T09:12:21.144Z,100645.00
2022-12-12T09:14:52.505Z,100647.09
2022-12-12T09:17:23.836Z,100632.19
2022-12-12T09:19:55.226Z,100625.31
2022-12-12T09:22:26.853Z,100645.16
2022-12-12T09:24:58.280Z,100649.81
2022-12-12T09:27:29.706Z,100655.31
2022-12-12T09:30:00.998Z,100652.16
2022-12-12T09:32:32.267Z,100650.72
2022-12-12T09:35:03.692Z,100623.84
2022-12-12T09:37:35.090Z,100644.50
2022-12-12T09:40:08.075Z,100643.97
2022-12-12T09:42:47.948Z,100624.94
2022-12-12T09:45:20.559Z,100630.59
2022-12-12T09:47:58.120Z,100646.69
2022-12-12T09:50:44.863Z,100651.22
2022-12-12T09:53:20.111Z,100648.03
2022-12-12T09:56:19.315Z,100629.81
2022-12-12T09:59:00.826Z,100644.19
2022-12-12T10:01:52.879Z,100640.13
2022-12-12T10:04:39.869Z,100634.25
2022-12-12T10:07:18.254Z,100640.56
2022-12-12T10:10:02.907Z,100615.16
2022-12-12T10:12:34.644Z,100638.25
2022-12-12T10:15:13.721Z,100634.94
2022-12-12T10:17:46.678Z,100635.94
2022-12-12T10:20:27.479Z,100642.22
2022-12-12T10:23:19.182Z,100639.84
2022-12-12T10:26:02.145Z,100637.41
2022-12-12T10:28:35.224Z,100639.28
2022-12-12T10:31:40.690Z,100633.47
2022-12-12T10:34:33.992Z,100633.63
2022-12-12T10:37:39.503Z,100621.47
2022-12-12T10:40:42.002Z,100641.78
2022-12-12T10:43:41.020Z,100639.34
2022-12-12T10:46:20.517Z,100640.34
2022-12-12T10:48:52.240Z,100629.06
2022-12-12T10:51:27.435Z,100643.25
2022-12-12T10:53:58.688Z,100641.69
2022-12-12T10:56:30.136Z,100638.41
2022-12-12T10:59:01.848Z,100602.44
2022-12-12T11:04:31.452Z,100624.88
2022-12-12T11:07:02.708Z,100619.66
2022-12-12T11:09:34.032Z,100613.44
2022-12-12T11:12:16.480Z,100623.41
2022-12-12T11:14:52.835Z,100627.75
2022-12-12T11:17:29.396Z,100627.00
2022-12-12T11:20:09.712Z,100621.78
2022-12-12T11:22:40.996Z,100618.28
2022-12-12T11:25:44.623Z,100624.50
2022-12-12T11:28:23.115Z,100622.63
2022-12-12T11:30:56.446Z,100624.63
2022-12-12T11:33:35.324Z,100606.13
2022-12-12T11:36:06.992Z,100607.19
2022-12-12T11:38:40.786Z,100624.03
2022-12-12T11:41:12.386Z,100597.84
2022-12-12T11:43:49.753Z,100618.97
2022-12-12T11:46:31.936Z,100626.00
2022-12-12T11:49:05.032Z,100618.28
2022-12-12T11:51:40.484Z,100616.69
2022-12-12T11:54:12.025Z,100617.63
2022-12-12T11:56:50.095Z,100612.47
2022-12-12T11:59:30.387Z,100615.13
2022-12-12T12:02:22.946Z,100609.09
2022-12-12T12:05:27.829Z,100610.00
2022-12-12T12:08:22.526Z,100603.97
2022-12-12T12:11:15.235Z,100600.50
2022-12-12T12:14:02.855Z,100603.09
2022-12-12T12:16:47.016Z,100597.09
2022-12-12T12:19:45.784Z,100600.75
2022-12-12T12:22:35.606Z,100599.97
2022-12-12T12:25:25.468Z,100600.91
2022-12-12T12:28:04.525Z,100595.69
2022-12-12T12:31:00.443Z,100599.97
2022-12-12T12:33:48.436Z,100600.81
2022-12-12T12:36:24.798Z,100605.13
2022-12-12T12:39:04.358Z,100596.56
2022-12-12T12:41:50.851Z,100600.16
2022-12-12T12:44:39.323Z,100588.72
2022-12-12T12:47:31.258Z,100602.88
2022-12-12T12:50:16.138Z,100601.91
2022-12-12T12:52:56.909Z,100602.75
2022-12-12T12:55:43.847Z,100599.22
2022-12-12T12:58:18.547Z,100597.53
2022-12-12T13:01:02.452Z,100610.56
2022-12-12T13:03:47.806Z,100594.84
2022-12-12T13:06:27.695Z,100601.88
2022-12-12T13:09:18.026Z,100601.88
2022-12-12T13:11:53.110Z,100585.91
2022-12-12T13:14:48.568Z,100604.44
2022-12-12T13:17:44.696Z,100611.41
2022-12-12T13:20:20.906Z,100592.25
2022-12-12T13:23:15.453Z,100609.81
2022-12-12T13:26:12.863Z,100607.22
2022-12-12T13:28:49.153Z,100608.97
2022-12-12T13:31:42.730Z,100613.25
2022-12-12T13:34:20.584Z,100608.94
2022-12-12T13:36:53.779Z,100603.59
2022-12-12T13:39:32.938Z,100612.47
2022-12-12T13:42:07.391Z,100608.03
2022-12-12T13:44:47.297Z,100611.47
2022-12-12T13:47:21.842Z,100625.34
2022-12-12T13:50:02.576Z,100602.47
2022-12-12T13:52:42.078Z,100617.53
2022-12-12T13:55:13.284Z,100620.13
2022-12-12T13:58:02.510Z,100613.06
2022-12-12T14:00:41.596Z,100590.09
2022-12-12T14:03:12.912Z,100618.22
2022-12-12T14:05:49.898Z,100608.66
2022-12-12T14:08:26.201Z,100611.13
2022-12-12T14:11:01.711Z,100598.69
2022-12-12T14:13:42.853Z,100610.94
2022-12-12T14:16:14.396Z,100611.69
2022-12-12T14:18:51.544Z,100612.44
2022-12-12T14:21:44.352Z,100614.00
2022-12-12T14:24:33.767Z,100619.78
2022-12-12T14:27:09.682Z,100620.41
2022-12-12T14:29:43.283Z,100622.81
2022-12-12T14:32:34.531Z,100621.72
2022-12-12T14:35:28.988Z,100620.56
2022-12-12T14:38:34.343Z,100613.09
2022-12-12T14:41:14.002Z,100625.09
2022-12-12T14:44:37.120Z,100630.94
2022-12-12T14:46:44.066Z,100626.25
2022-12-12T14:49:17.692Z,100624.28
2022-12-12T14:51:51.979Z,100632.69
2022-12-12T14:54:24.924Z,100626.25
2022-12-12T14:57:01.357Z,100633.00
2022-12-12T14:59:33.952Z,100638.91
2022-12-12T15:02:18.140Z,100628.16
2022-12-12T15:04:58.165Z,100622.41
2022-12-12T15:07:38.363Z,100633.59
2022-12-12T15:10:24.116Z,100625.50
2022-12-12T15:12:55.356Z,100628.69
2022-12-12T15:15:31.582Z,100618.69
2022-12-12T15:18:02.968Z,100614.81
2022-12-12T15:20:35.204Z,100607.50
2022-12-12T15:23:07.340Z,100617.66
2022-12-12T15:25:46.572Z,100641.16
2022-12-12T15:28:21.003Z,100643.56
2022-12-12T15:30:53.688Z,100643.34
2022-12-12T15:33:27.145Z,100642.28
2022-12-12T15:36:04.925Z,100642.09
2022-12-12T15:38:36.396Z,100646.97
2022-12-12T15:41:13.531Z,100643.38
2022-12-12T15:43:45.288Z,100644.84
2022-12-12T15:46:16.944Z,100643.00
2022-12-12T15:48:52.185Z,100645.44
2022-12-12T15:51:29.985Z,100648.69
2022-12-12T15:54:02.516Z,100639.91
2022-12-12T15:56:33.800Z,100646.72
2022-12-12T15:59:05.008Z,100645.72
2022-12-12T16:01:36.487Z,100652.47
2022-12-12T16:04:11.370Z,100649.69
2022-12-12T16:06:44.724Z,100651.28
2022-12-12T16:09:21.686Z,100635.94
2022-12-12T16:11:57.515Z,100630.00
2022-12-12T16:14:42.147Z,100645.59
2022-12-12T16:17:23.198Z,100632.06
2022-12-12T16:20:00.643Z,100643.31
2022-12-12T16:22:43.894Z,100638.81
2022-12-12T16:25:27.217Z,100647.16
2022-12-12T16:28:08.069Z,100646.06
2022-12-12T16:30:41.752Z,100635.44
2022-12-12T16:33:25.360Z,100642.25
2022-12-12T16:35:59.178Z,100616.41
2022-12-12T16:38:31.023Z,100644.59
2022-12-12T16:41:17.139Z,100653.97
2022-12-12T16:43:48.587Z,100634.53
2022-12-12T16:46:21.649Z,100646.91
2022-12-12T16:48:53.307Z,100629.88
2022-12-12T16:51:28.396Z,100642.09
2022-12-12T16:53:59.888Z,100635.78
2022-12-12T16:56:31.205Z,100625.03
2022-12-12T16:59:02.517Z,100652.13
2022-12-12T17:01:38.583Z,100638.91
2022-12-12T17:04:18.269Z,100646.69
2022-12-12T17:06:50.247Z,100643.81
2022-12-12T17:09:25.475Z,100623.13
2022-12-12T17:11:59.637Z,100661.56
2022-12-12T17:14:30.990Z,100631.69
2022-12-12T17:17:05.433Z,100636.88
2022-12-12T17:19:36.756Z,100652.50
2022-12-12T17:22:08.118Z,100650.81
2022-12-12T17:24:39.465Z,100645.50
2022-12-12T17:27:10.751Z,100649.72
2022-12-12T17:29:42.004Z,100647.88
2022-12-12T17:32:13.332Z,100650.19
2022-12-12T17:34:44.655Z,100657.78
2022-12-12T17:37:15.951Z,100661.88
2022-12-12T17:39:47.324Z,100603.56
2022-12-12T17:42:18.850Z,100640.50
2022-12-12T17:44:50.293Z,100662.47
2022-12-12T17:47:21.726Z,100667.47
2022-12-12T17:49:53.008Z,100656.94
2022-12-12T17:52:24.321Z,100657.50
2022-12-12T17:55:53.570Z,100656.59
2022-12-12T17:57:46.833Z,100639.56
2022-12-12T18:00:18.342Z,100607.81
2022-12-12T18:02:49.618Z,100647.25
2022-12-12T18:05:20.960Z,100646.28
2022-12-12T18:07:52.381Z,100658.53
2022-12-12T18:10:23.696Z,100654.09
2022-12-12T18:12:55.089Z,100662.59
2022-12-12T18:15:26.343Z,100658.09
2022-12-12T18:17:57.613Z,100634.28
2022-12-12T18:20:31.491Z,100656.25
2022-12-12T18:23:03.367Z,100657.13
2022-12-12T18:25:37.374Z,100621.09
2022-12-12T18:28:12.179Z,100646.81
2022-12-12T18:30:43.513Z,100641.44
2022-12-12T18:33:14.770Z,100650.28
2022-12-12T18:35:46.023Z,100648.31
2022-12-12T18:38:18.985Z,100647.22
2022-12-12T18:40:52.680Z,100619.69
2022-12-12T18:43:26.106Z,100652.22
2022-12-12T18:46:02.960Z,100631.63
2022-12-12T18:48:35.258Z,100648.53
2022-12-12T18:51:11.412Z,100651.13
2022-12-12T18:53:44.270Z,100656.28
2022-12-12T18:56:19.179Z,100650.97
2022-12-12T18:58:53.115Z,100648.16
2022-12-12T19:01:27.628Z,100650.81
2022-12-12T19:04:04.529Z,100642.84
2022-12-12T19:06:40.034Z,100627.09
2022-12-12T19:09:16.668Z,100651.00
2022-12-12T19:11:49.434Z,100656.84
2022-12-12T19:14:21.505Z,100647.16
2022-12-12T19:16:52.919Z,100666.13
2022-12-12T19:19:24.404Z,100637.03
2022-12-12T19:21:55.670Z,100632.38
2022-12-12T19:24:27.066Z,100652.69
2022-12-12T19:26:58.326Z,100652.69
2022-12-12T19:29:29.648Z,100657.75
2022-12-12T19:32:00.991Z,100655.91
2022-12-12T19:34:32.360Z,100638.78
2022-12-12T19:37:03.852Z,100638.63
2022-12-12T19:39:35.287Z,100650.13
2022-12-12T19:42:06.693Z,100652.56
2022-12-12T19:44:43.187Z,100661.91
2022-12-12T19:47:16.666Z,100658.28
2022-12-12T19:49:49.462Z,100641.44
2022-12-12T19:52:21.104Z,100652.72
2022-12-12T19:54:52.624Z,100652.56
2022-12-12T19:57:26.162Z,100601.16
2022-12-12T19:59:57.507Z,100672.72
2022-12-12T20:02:29.141Z,100675.28
2022-12-12T20:05:00.455Z,100653.13
2022-12-12T20:07:31.752Z,100643.41
2022-12-12T20:10:03.378Z,100645.09
2022-12-12T20:12:34.653Z,100637.78
2022-12-12T20:15:06.499Z,100660.97
2022-12-12T20:17:37.855Z,100644.88
2022-12-12T20:20:10.843Z,100666.91
2022-12-12T20:22:42.198Z,100672.16
2022-12-12T20:25:13.487Z,100655.19
2022-12-12T20:27:44.986Z,100666.09
2022-12-12T20:30:16.740Z,100663.44
2022-12-12T20:32:48.323Z,100630.56
2022-12-12T20:35:19.661Z,100664.19
2022-12-12T20:37:51.017Z,100648.09
2022-12-12T20:40:22.586Z,100611.63
2022-12-12T20:43:01.615Z,100637.16
2022-12-12T20:45:38.486Z,100679.41
2022-12-12T20:48:09.967Z,100664.22
2022-12-12T20:50:41.636Z,100668.72
2022-12-12T20:53:13.234Z,100666.94
2022-12-12T20:55:44.767Z,100652.63
2022-12-12T20:58:16.083Z,100664.13
2022-12-12T21:00:47.388Z,100673.56
2022-12-12T21:03:18.712Z,100669.22
2022-12-12T21:05:50.488Z,100656.97
2022-12-12T21:08:21.883Z,100668.25
2022-12-12T21:10:53.197Z,100660.44
2022-12-12T21:13:24.512Z,100676.94
2022-12-12T21:15:55.822Z,100687.25
2022-12-12T21:18:27.212Z,100691.59
2022-12-12T21:20:58.451Z,100696.75
2022-12-12T21:23:30.256Z,100687.50
2022-12-12T21:26:06.422Z,100685.88
2022-12-12T21:28:38.290Z,100692.09
2022-12-12T21:31:11.697Z,100680.97
2022-12-12T21:33:43.696Z,100673.72
2022-12-12T21:36:17.742Z,100682.72
2022-12-12T21:38:50.022Z,100686.13
2022-12-12T21:41:22.796Z,100683.47
2022-12-12T21:43:59.299Z,100682.41
2022-12-12T21:46:30.615Z,100678.72
2022-12-12T21:49:19.903Z,100681.28
2022-12-12T21:51:52.532Z,100672.44
2022-12-12T21:54:24.056Z,100674.69
2022-12-12T21:56:56.905Z,100676.13
2022-12-12T21:59:28.951Z,100665.41
2022-12-12T22:02:00.603Z,100642.28
2022-12-12T22:04:32.147Z,100650.25
2022-12-12T22:07:03.387Z,100669.03
2022-12-12T22:09:34.633Z,100675.06
2022-12-12T22:12:06.441Z,100675.06
2022-12-12T22:14:37.689Z,100648.56
2022-12-12T22:17:08.940Z,100668.06
2022-12-12T22:19:40.172Z,100660.97
2022-12-12T22:22:11.420Z,100664.59
2022-12-12T22:24:42.686Z,100646.00
2022-12-12T22:27:13.979Z,100668.78
2022-12-12T22:29:45.331Z,100664.34
2022-12-12T22:32:16.690Z,100634.22
2022-12-12T22:34:48.488Z,100640.19
2022-12-12T22:37:19.792Z,100665.06
2022-12-12T22:39:51.048Z,100668.69
2022-12-12T22:42:22.304Z,100647.69
2022-12-12T22:44:53.548Z,100660.56
2022-12-12T22:47:24.886Z,100659.22
2022-12-12T22:49:56.261Z,100655.34
2022-12-12T22:52:28.841Z,100653.81
2022-12-12T22:55:00.304Z,100654.00
2022-12-12T22:57:31.603Z,100613.31
2022-12-12T23:00:04.459Z,100644.97
2022-12-12T23:02:35.728Z,100665.91
2022-12-12T23:05:07.324Z,100663.09
2022-12-12T23:07:38.690Z,100662.91
2022-12-12T23:10:10.109Z,100659.38
2022-12-12T23:12:41.395Z,100655.03
2022-12-12T23:15:13.047Z,100626.19
2022-12-12T23:17:44.503Z,100658.09
2022-12-12T23:20:15.887Z,100654.28
2022-12-12T23:22:47.195Z,100676.28
2022-12-12T23:25:18.461Z,100654.28
2022-12-12T23:27:49.740Z,100669.03
2022-12-12T23:30:20.993Z,100665.47
2022-12-12T23:32:52.443Z,100632.44
2022-12-12T23:35:23.686Z,100662.56
2022-12-12T23:37:54.941Z,100661.63
2022-12-12T23:40:26.231Z,100654.34
2022-12-12T23:42:57.479Z,100657.00
2022-12-12T23:45:29.407Z,100656.03
2022-12-12T23:48:00.703Z,100657.56
2022-12-12T23:50:32.616Z,100625.66
2022-12-12T23:53:09.050Z,100647.81
2022-12-12T23:55:41.769Z,100648.69
2022-12-12T23:58:13.121Z,100638.41
